Time;durP1;ratioP1;P1;durP2;ratioP2;P2;SDS_P1;SDS_P2;PMS_P1;PMS_P2;Temp;Humidity;BMP_temperature;BMP_pressure;BME280_temperature;BME280_humidity;BME280_pressure;Samples;Min_cycle;Max_cycle;Signal;HPM_P1;HPM_P2
2021/04/28 07:37:09;;;;;;;10.38;6.82;;;11.70;55.70;;;;;;6079414;23;20026;31
2021/04/28 07:39:35;;;;;;;10.77;6.53;;;11.90;56.20;;;;;;6097947;23;20041;-91
2021/04/28 07:42:01;;;;;;;10.10;5.55;;;12.10;55.40;;;;;;6072985;23;20038;-90
2021/04/28 10:47:14;;;;;;;8.75;6.10;;;19.10;44.70;;;;;;6071039;23;20033;-90
2021/04/28 10:50:08;;;;;;;13.93;6.50;;;19.20;45.60;;;;;;6069525;23;20368;-91
2021/04/28 10:52:40;;;;;;;8.05;5.50;;;19.50;45.20;;;;;;6045453;23;20070;-90
2021/04/28 10:55:06;;;;;;;10.48;6.55;;;19.70;45.50;;;;;;6070835;23;20010;-90
2021/04/28 10:57:37;;;;;;;9.60;7.28;;;19.80;43.50;;;;;;6068898;23;20081;-90
2021/04/28 11:23:22;;;;;;;8.55;4.95;;;20.30;42.50;;;;;;6073863;23;20381;-93
2021/04/28 11:26:36;;;;;;;;;;;;;;;;;;;;;
2021/04/28 11:36:09;;;;;;;10.25;6.25;;;20.40;41.10;;;;;;5903814;24;20078;-93
2021/04/28 11:39:05;;;;;;;6.97;5.18;;;20.40;43.10;;;;;;5904021;24;20009;-93
2021/04/28 11:48:44;;;;;;;8.43;5.13;;;20.80;45.40;;;;;;5912786;24;20077;-93
2021/04/28 11:51:36;;;;;;;8.95;5.90;;;21.00;40.30;;;;;;5963634;24;20004;-93
2021/04/28 11:54:34;;;;;;;9.27;6.00;;;20.80;39.10;;;;;;6072525;23;20014;-93
2021/04/28 11:57:03;;;;;;;9.02;5.97;;;20.60;39.80;;;;;;6072224;23;20003;-93
2021/04/28 11:59:40;;;;;;;7.75;5.18;;;20.30;40.50;;;;;;6096391;23;20010;-93
2021/04/28 12:05:23;;;;;;;10.20;5.70;;;20.40;39.10;;;;;;6042868;23;20036;-94
2021/04/28 12:07:58;;;;;;;;;;;20.50;38.70;;;;;;6073675;23;20003;-94
2021/04/28 12:11:05;;;;;;;9.77;5.18;;;20.60;44.70;;;;;;6072895;23;19917;-94
2021/04/28 12:16:56;;;;;;;8.55;5.22;;;20.90;40.00;;;;;;5985763;24;20022;-94
2021/04/28 12:19:23;;;;;;;8.32;5.30;;;21.10;38.20;;;;;;5985749;24;20116;-94
2021/04/28 12:25:17;;;;;;;9.80;6.00;;;21.40;39.90;;;;;;5998772;23;20013;-94
2021/04/28 12:27:47;;;;;;;9.63;6.00;;;21.20;37.40;;;;;;6074899;23;20068;-94
2021/04/28 12:30:29;;;;;;;9.05;5.90;;;21.00;38.60;;;;;;6074461;23;19998;-94
2021/04/28 12:33:51;;;;;;;13.60;7.03;;;20.80;39.00;;;;;;6074155;23;20089;-94
2021/04/28 12:36:26;;;;;;;9.52;6.20;;;20.90;41.60;;;;;;6073374;23;20014;-93
2021/04/28 12:38:51;;;;;;;9.00;5.57;;;21.10;39.10;;;;;;6074608;23;20038;-92
2021/04/28 12:52:00;;;;;;;8.05;5.53;;;21.70;37.70;;;;;;6056977;23;20388;-94
2021/04/28 12:58:01;;;;;;;9.48;5.88;;;22.00;39.10;;;;;;6015098;23;20072;-93
2021/04/28 13:00:34;;;;;;;10.38;7.00;;;22.20;37.10;;;;;;6073103;23;20015;-93
2021/04/28 13:03:25;;;;;;;10.57;6.40;;;22.30;37.40;;;;;;6074969;23;20122;-93
2021/04/28 13:05:58;;;;;;;9.68;7.10;;;22.40;37.50;;;;;;6083519;23;20451;-93
2021/04/28 13:08:31;;;;;;;9.70;7.03;;;22.50;37.30;;;;;;6074496;23;20010;-93
2021/04/28 13:11:00;;;;;;;10.88;6.60;;;22.60;35.70;;;;;;6073856;23;20094;-93
2021/04/28 13:13:37;;;;;;;12.70;7.75;;;22.40;35.40;;;;;;6073117;23;20011;-93
2021/04/28 13:16:17;;;;;;;;;;;;;;;;;;;;;
2021/04/28 13:18:51;;;;;;;7.35;4.78;;;22.50;35.50;;;;;;6074112;23;20092;-94
2021/04/28 13:21:28;;;;;;;8.50;5.35;;;22.50;31.80;;;;;;6073803;23;20039;-93
2021/04/28 13:24:06;;;;;;;8.90;5.82;;;22.60;32.60;;;;;;6072952;23;20014;-90
2021/04/28 13:26:34;;;;;;;6.78;4.70;;;22.30;33.20;;;;;;6073188;23;20007;-91
2021/04/28 13:29:04;;;;;;;8.45;5.50;;;22.20;36.30;;;;;;6073958;23;20010;-93
2021/04/28 13:31:41;;;;;;;12.13;5.82;;;22.30;34.50;;;;;;6072122;23;20011;-89
2021/04/28 13:34:07;;;;;;;14.13;6.60;;;22.50;35.90;;;;;;6072821;23;20033;-90
2021/04/28 13:36:44;;;;;;;12.93;7.20;;;22.50;35.00;;;;;;6072796;23;20351;-90
2021/04/28 13:39:24;;;;;;;73.43;16.50;;;22.50;36.70;;;;;;6072430;23;20086;-90
2021/04/28 13:41:57;;;;;;;46.47;11.25;;;22.50;36.40;;;;;;6072233;23;20561;-89
2021/04/28 13:44:26;;;;;;;12.27;7.22;;;22.60;35.80;;;;;;6071602;23;20022;-88
2021/04/28 13:46:56;;;;;;;9.85;7.00;;;22.70;34.10;;;;;;6074112;23;20006;-94
2021/04/28 13:49:39;;;;;;;10.07;6.03;;;22.20;33.20;;;;;;6053342;23;20014;-93
2021/04/28 14:02:44;;;;;;;9.10;6.68;;;22.30;35.70;;;;;;5934814;24;20085;-93
2021/04/28 14:05:11;;;;;;;12.18;6.75;;;22.40;34.50;;;;;;5933778;24;20364;-90
2021/04/28 14:07:38;;;;;;;13.52;7.03;;;22.50;35.10;;;;;;6091166;23;20085;-91
2021/04/28 14:10:05;;;;;;;12.48;8.10;;;22.50;35.20;;;;;;6095434;23;20011;-90
2021/04/28 14:12:31;;;;;;;12.23;6.85;;;22.50;36.90;;;;;;6072078;23;20328;-92
2021/04/28 14:14:57;;;;;;;9.80;6.75;;;22.50;35.70;;;;;;6071784;23;20233;-92
2021/04/28 14:17:22;;;;;;;11.55;7.32;;;22.60;36.00;;;;;;6072388;23;20031;-89
2021/04/28 14:19:48;;;;;;;9.02;6.70;;;22.70;37.30;;;;;;6071427;23;20006;-90
2021/04/28 14:22:14;;;;;;;9.40;7.18;;;22.80;35.30;;;;;;6071484;23;20011;-90
2021/04/28 14:24:40;;;;;;;13.55;6.72;;;22.80;35.20;;;;;;6073357;23;20094;-91
2021/04/28 14:27:05;;;;;;;8.02;5.60;;;22.80;34.00;;;;;;6072087;23;20037;-91
2021/04/28 14:29:31;;;;;;;11.32;7.28;;;22.80;35.90;;;;;;6072352;23;20006;-91
2021/04/28 14:31:58;;;;;;;10.10;6.75;;;22.90;35.60;;;;;;6073373;23;20037;-92
2021/04/28 14:34:24;;;;;;;11.82;7.63;;;22.90;36.30;;;;;;6073023;23;20014;-91
2021/04/28 14:36:50;;;;;;;10.98;7.40;;;22.90;35.20;;;;;;6073526;23;20305;-92
2021/04/28 14:42:57;;;;;;;;;;;;;;;;;;;;;
2021/04/28 14:46:06;;;;;;;11.02;5.60;;;22.90;35.50;;;;;;6017209;23;20035;-95
2021/04/28 14:49:09;;;;;;;9.30;7.20;;;22.90;34.00;;;;;;6018193;23;20015;-95
2021/04/28 14:54:52;;;;;;;11.55;6.50;;;22.80;35.30;;;;;;5960032;24;20092;-91
2021/04/28 15:08:16;;;;;;;11.63;6.38;;;22.80;35.70;;;;;;5930307;24;20134;-94
2021/04/28 15:14:11;;;;;;;13.70;6.90;;;22.70;35.70;;;;;;5876793;24;20014;-89
2021/04/28 15:16:37;;;;;;;17.95;9.20;;;22.70;34.90;;;;;;5921977;24;20494;-91
2021/04/28 15:19:02;;;;;;;13.50;7.53;;;22.70;34.50;;;;;;6066908;23;20022;-91
2021/04/28 15:22:02;;;;;;;15.70;7.28;;;22.80;36.20;;;;;;6071953;23;20086;-96
2021/04/28 15:24:47;;;;;;;11.48;7.00;;;22.90;35.30;;;;;;6073206;23;20037;-95
2021/04/28 15:27:34;;;;;;;11.18;7.15;;;23.00;35.80;;;;;;6073699;23;20018;-94
2021/04/28 18:11:00;;;;;;;11.65;7.43;;;18.50;43.50;;;;;;6090877;23;20029;-92
